Aérodrome :
LOGIN :

S'inscrire | Disclaimer

   EN    FR    IT 

 










Légende :    VFR   VFR Marginal   IFR   IFR Intensif   IFR Très Intensif
Visi : 
Plafond : 
>= 8 km
>= 3000ft
5 à 8 km
1000 à 3000 ft
1500m à 5 km
500 à 1000 ft
800 à 1500m
200 à 500 ft
< 800m
< 200 ft
Symboles :   Orages  Brouillard  Fortes neiges  Fortes précipitations  Vent > 20 kt
SIGMETs :   Divers  Orages  Givrage  Turbulence  Onde Orograph.  Cendres Volcan.






- Altitude de l'aérodrome : 863 ft
- Code IATA : ZAZ


LEZG - Zaragoza Aragon

DERNIER METAR :
  • 071330Z 34004KT 300V030 CAVOK 12/09 Q1023

METARs EXPIRÉS :
  • 071300Z 35003KT 280V050 CAVOK 12/10 Q1023
  • 071230Z 34003KT 290V020 CAVOK 11/09 Q1024
  • 071200Z 34003KT 280V020 CAVOK 10/09 Q1024
  • 071130Z 00000KT CAVOK 09/08 Q1024
  • 071100Z 00000KT CAVOK 08/07 Q1025

TAF TAF LEZG
Valide du 07 à 12h jusqu'au 08 à 12h UTC


071100Z 0712/0812 26008KT 9999 FEW005 TX13/0713Z TN05/0806Z
PROB30 0800/0806 4000 BR BKN014
BECMG 0810/0812 31009KT



MET'MAP, la Météo Aéronautique d'un coup d'oeil ! - Copyright ORBIFLY Décembre 2007 - Disclaimer

ORBIFLY MET'MAP TEAM :

Programmation & Développement : Alexandra Zaïnal
Sur une idée originale de : Baudouin d'Aumeries
Assistance à la programmation : Marc-Olivier Méhu
Soutien technique & logistique : Manuel Goepfert

Contact : metmap@orbifly.com




SOURCES & CREDITS :

   NOAA